UPS2992 UGTB-UACC
Flight info
| Callsign | UPS2992 |
|---|---|
| Flight time | N/A |
| Altitude | 41000 |
| Route | DISKA M737 VERCA M747 SUBUT T916 BALUN/K0882F410 N55 OGANU P574 VETUB VETUB2D |
| Aircraft | B77L/H-SDE1E2E3FGHIJ2J3J4J5M1RWXY/LB1D1 |
Departure
| Time | 2026-04-26 07:54 |
|---|---|
| Airport | Tbilisi International Airport (UGTB) |
Arrival
| Time | N/A |
|---|---|
| Airport | Nursultan Nazarbayev International Airport (UACC) |
| Time | Latitude | Longitude | Altitude | Speed | Heading |
|---|---|---|---|---|---|
| 2026-04-26 07:27 | 41.66789 | 44.96206 | 1642 ft | 0 kts | 224° |
| 2026-04-26 07:44 | 41.66793 | 44.96211 | 1641 ft | 1 kts | 224° |
| 2026-04-26 07:44 | 41.66800 | 44.96220 | 1641 ft | 2 kts | 220° |
| 2026-04-26 07:44 | 41.66813 | 44.96231 | 1641 ft | 2 kts | 197° |
| 2026-04-26 07:45 | 41.66827 | 44.96235 | 1641 ft | 2 kts | 181° |
| 2026-04-26 07:45 | 41.66842 | 44.96233 | 1641 ft | 2 kts | 163° |
| 2026-04-26 07:45 | 41.66856 | 44.96226 | 1641 ft | 2 kts | 146° |
| 2026-04-26 07:45 | 41.66864 | 44.96218 | 1641 ft | 0 kts | 134° |
| 2026-04-26 07:46 | 41.66866 | 44.96214 | 1641 ft | 0 kts | 133° |
| 2026-04-26 07:48 | 41.66865 | 44.96216 | 1641 ft | 1 kts | 133° |
| 2026-04-26 07:48 | 41.66842 | 44.96249 | 1641 ft | 7 kts | 133° |
| 2026-04-26 07:48 | 41.66795 | 44.96316 | 1641 ft | 11 kts | 133° |
| 2026-04-26 07:49 | 41.66733 | 44.96397 | 1641 ft | 14 kts | 134° |
| 2026-04-26 07:49 | 41.66642 | 44.96413 | 1641 ft | 14 kts | 192° |
| 2026-04-26 07:49 | 41.66563 | 44.96391 | 1641 ft | 11 kts | 193° |
| 2026-04-26 07:50 | 41.66394 | 44.96339 | 1641 ft | 13 kts | 193° |
| 2026-04-26 07:50 | 41.66299 | 44.96307 | 1641 ft | 15 kts | 194° |
| 2026-04-26 07:50 | 41.66194 | 44.96311 | 1641 ft | 15 kts | 156° |
| 2026-04-26 07:50 | 41.66100 | 44.96402 | 1641 ft | 18 kts | 139° |
| 2026-04-26 07:51 | 41.65999 | 44.96521 | 1641 ft | 19 kts | 138° |
| 2026-04-26 07:51 | 41.65906 | 44.96601 | 1641 ft | 14 kts | 177° |
| 2026-04-26 07:51 | 41.65845 | 44.96525 | 1641 ft | 12 kts | 251° |
| 2026-04-26 07:51 | 41.65873 | 44.96422 | 1641 ft | 12 kts | 319° |
| 2026-04-26 07:52 | 41.65899 | 44.96390 | 1641 ft | 0 kts | 317° |
| 2026-04-26 07:52 | 41.65959 | 44.96315 | 1641 ft | 32 kts | 317° |
| 2026-04-26 07:52 | 41.66233 | 44.95968 | 1641 ft | 75 kts | 316° |
| 2026-04-26 07:52 | 41.66712 | 44.95363 | 1641 ft | 112 kts | 316° |
| 2026-04-26 07:53 | 41.67366 | 44.94536 | 1644 ft | 145 kts | 317° |
| 2026-04-26 07:53 | 41.68084 | 44.93628 | 1930 ft | 139 kts | 316° |
| 2026-04-26 07:53 | 41.68792 | 44.92674 | 2068 ft | 147 kts | 313° |
| 2026-04-26 07:53 | 41.69522 | 44.91662 | 2163 ft | 160 kts | 315° |
| 2026-04-26 07:54 | 41.70338 | 44.90598 | 2409 ft | 164 kts | 317° |
| 2026-04-26 07:54 | 41.71148 | 44.89601 | 2876 ft | 151 kts | 318° |
| 2026-04-26 07:54 | 41.71927 | 44.88687 | 3167 ft | 148 kts | 324° |
| 2026-04-26 07:54 | 41.72890 | 44.88278 | 3342 ft | 150 kts | 9° |
| 2026-04-26 07:55 | 41.73774 | 44.88955 | 3497 ft | 152 kts | 58° |
| 2026-04-26 07:55 | 41.73989 | 44.90310 | 3625 ft | 157 kts | 105° |
| 2026-04-26 07:55 | 41.73361 | 44.91535 | 3601 ft | 173 kts | 152° |
| 2026-04-26 07:55 | 41.72206 | 44.92083 | 3878 ft | 171 kts | 163° |
| 2026-04-26 07:56 | 41.71113 | 44.92594 | 4246 ft | 165 kts | 159° |
| 2026-04-26 07:56 | 41.70062 | 44.93165 | 4515 ft | 165 kts | 153° |
| 2026-04-26 07:56 | 41.69078 | 44.94016 | 4676 ft | 172 kts | 141° |
| 2026-04-26 07:56 | 41.68144 | 44.95117 | 4848 ft | 180 kts | 136° |
| 2026-04-26 07:57 | 41.67236 | 44.96334 | 5012 ft | 190 kts | 133° |
| 2026-04-26 07:57 | 41.66323 | 44.97670 | 5177 ft | 201 kts | 131° |
| 2026-04-26 07:57 | 41.65380 | 44.99109 | 5341 ft | 212 kts | 130° |
| 2026-04-26 07:57 | 41.64382 | 45.00668 | 5506 ft | 224 kts | 130° |
| 2026-04-26 07:58 | 41.63349 | 45.02302 | 5666 ft | 236 kts | 130° |
| 2026-04-26 07:58 | 41.62273 | 45.04013 | 5824 ft | 249 kts | 130° |
| 2026-04-26 07:58 | 41.61121 | 45.05848 | 5980 ft | 261 kts | 130° |
| 2026-04-26 07:58 | 41.59930 | 45.07748 | 6181 ft | 271 kts | 130° |
| 2026-04-26 07:59 | 41.58662 | 45.09683 | 6402 ft | 280 kts | 132° |
| 2026-04-26 07:59 | 41.57335 | 45.11639 | 6621 ft | 289 kts | 131° |
| 2026-04-26 07:59 | 41.55982 | 45.13664 | 6838 ft | 298 kts | 132° |
| 2026-04-26 07:59 | 41.54583 | 45.15749 | 7067 ft | 306 kts | 132° |
| 2026-04-26 08:00 | 41.53171 | 45.17857 | 7556 ft | 303 kts | 132° |
| 2026-04-26 08:00 | 41.51786 | 45.19925 | 8046 ft | 301 kts | 132° |
| 2026-04-26 08:00 | 41.50389 | 45.22007 | 8543 ft | 296 kts | 132° |
| 2026-04-26 08:00 | 41.49069 | 45.23976 | 9000 ft | 276 kts | 132° |
| 2026-04-26 08:01 | 41.47822 | 45.25833 | 9473 ft | 275 kts | 132° |
| 2026-04-26 08:01 | 41.46516 | 45.27775 | 10000 ft | 279 kts | 132° |
| 2026-04-26 08:01 | 41.45238 | 45.29678 | 10488 ft | 276 kts | 133° |
| 2026-04-26 08:01 | 41.43953 | 45.31588 | 10983 ft | 273 kts | 133° |
| 2026-04-26 08:02 | 41.42696 | 45.33440 | 11466 ft | 268 kts | 136° |
| 2026-04-26 08:02 | 41.41186 | 45.34926 | 11249 ft | 282 kts | 158° |
| 2026-04-26 08:02 | 41.39233 | 45.35427 | 10884 ft | 289 kts | 184° |
| 2026-04-26 08:02 | 41.37317 | 45.34750 | 10521 ft | 292 kts | 208° |
| 2026-04-26 08:03 | 41.35774 | 45.33017 | 10153 ft | 295 kts | 233° |
| 2026-04-26 08:03 | 41.34837 | 45.30576 | 9781 ft | 300 kts | 253° |
| 2026-04-26 08:03 | 41.34558 | 45.27786 | 9397 ft | 303 kts | 272° |
| 2026-04-26 08:03 | 41.34975 | 45.25055 | 9012 ft | 305 kts | 291° |
| 2026-04-26 08:04 | 41.36047 | 45.22623 | 8625 ft | 306 kts | 310° |
| 2026-04-26 08:04 | 41.37651 | 45.20782 | 8239 ft | 307 kts | 328° |
| 2026-04-26 08:04 | 41.39532 | 45.19450 | 7845 ft | 303 kts | 332° |
| 2026-04-26 08:04 | 41.41360 | 45.18137 | 7450 ft | 301 kts | 331° |
| 2026-04-26 08:05 | 41.43212 | 45.16815 | 7047 ft | 299 kts | 331° |
| 2026-04-26 08:05 | 41.45025 | 45.15507 | 6649 ft | 295 kts | 328° |
| 2026-04-26 08:05 | 41.46611 | 45.13824 | 6245 ft | 291 kts | 316° |
| 2026-04-26 08:05 | 41.48057 | 45.11976 | 5852 ft | 289 kts | 317° |
| 2026-04-26 08:06 | 41.49524 | 45.10152 | 5452 ft | 287 kts | 316° |
| 2026-04-26 08:06 | 41.50984 | 45.08318 | 5051 ft | 286 kts | 315° |
| 2026-04-26 08:06 | 41.52137 | 45.06233 | 4644 ft | 281 kts | 291° |
| 2026-04-26 08:06 | 41.52311 | 45.03686 | 4259 ft | 278 kts | 258° |
| 2026-04-26 08:07 | 41.51463 | 45.01414 | 3881 ft | 275 kts | 233° |
| 2026-04-26 08:07 | 41.50282 | 44.99421 | 3497 ft | 273 kts | 233° |
| 2026-04-26 08:07 | 41.49129 | 44.97578 | 3664 ft | 245 kts | 219° |
| 2026-04-26 08:07 | 41.47661 | 44.96825 | 3923 ft | 215 kts | 176° |
| 2026-04-26 08:08 | 41.46331 | 44.97418 | 4223 ft | 198 kts | 153° |
| 2026-04-26 08:08 | 41.45149 | 44.98249 | 4515 ft | 185 kts | 144° |
| 2026-04-26 08:08 | 41.44376 | 44.99577 | 4846 ft | 192 kts | 112° |
| 2026-04-26 08:08 | 41.43847 | 45.01330 | 5061 ft | 221 kts | 112° |
| 2026-04-26 08:09 | 41.43241 | 45.03222 | 4975 ft | 219 kts | 112° |
| 2026-04-26 08:09 | 41.42651 | 45.05077 | 4973 ft | 214 kts | 112° |
| 2026-04-26 08:09 | 41.42070 | 45.06900 | 4983 ft | 215 kts | 112° |
| 2026-04-26 08:09 | 41.41490 | 45.08722 | 4977 ft | 213 kts | 112° |
| 2026-04-26 08:10 | 41.40910 | 45.10542 | 4977 ft | 211 kts | 112° |
| 2026-04-26 08:10 | 41.40342 | 45.12326 | 4977 ft | 208 kts | 112° |
| 2026-04-26 08:10 | 41.39780 | 45.14089 | 4978 ft | 206 kts | 112° |
| 2026-04-26 08:10 | 41.39223 | 45.15839 | 4980 ft | 203 kts | 112° |
| 2026-04-26 08:11 | 41.38672 | 45.17571 | 4976 ft | 201 kts | 112° |
| 2026-04-26 08:11 | 41.38129 | 45.19274 | 4976 ft | 199 kts | 112° |
| 2026-04-26 08:11 | 41.37588 | 45.20970 | 4984 ft | 201 kts | 112° |
| 2026-04-26 08:11 | 41.37038 | 45.22696 | 4984 ft | 203 kts | 112° |
| 2026-04-26 08:12 | 41.36487 | 45.24427 | 4984 ft | 205 kts | 112° |
| 2026-04-26 08:12 | 41.35928 | 45.26181 | 4985 ft | 207 kts | 112° |
| 2026-04-26 08:12 | 41.35362 | 45.27959 | 4985 ft | 209 kts | 112° |
| 2026-04-26 08:12 | 41.34874 | 45.29781 | 4978 ft | 209 kts | 97° |
| 2026-04-26 08:13 | 41.35088 | 45.31688 | 4990 ft | 208 kts | 60° |
| 2026-04-26 08:13 | 41.36098 | 45.33017 | 4996 ft | 207 kts | 24° |
| 2026-04-26 08:13 | 41.37496 | 45.33273 | 4997 ft | 206 kts | 347° |
| 2026-04-26 08:13 | 41.38728 | 45.32375 | 4998 ft | 206 kts | 314° |
| 2026-04-26 08:14 | 41.39689 | 45.30923 | 4992 ft | 208 kts | 313° |
| 2026-04-26 08:14 | 41.40708 | 45.29531 | 4985 ft | 210 kts | 314° |
| 2026-04-26 08:14 | 41.41732 | 45.28111 | 4985 ft | 213 kts | 314° |
| 2026-04-26 08:14 | 41.42759 | 45.26688 | 4984 ft | 216 kts | 314° |
| 2026-04-26 08:15 | 41.43802 | 45.25245 | 4984 ft | 218 kts | 314° |
| 2026-04-26 08:15 | 41.44859 | 45.23780 | 4981 ft | 217 kts | 314° |
| 2026-04-26 08:15 | 41.45904 | 45.22333 | 4996 ft | 212 kts | 314° |
| 2026-04-26 08:15 | 41.46918 | 45.20927 | 4991 ft | 213 kts | 314° |
| 2026-04-26 08:16 | 41.47939 | 45.19505 | 4995 ft | 212 kts | 313° |
| 2026-04-26 08:16 | 41.48954 | 45.18008 | 4936 ft | 215 kts | 311° |
| 2026-04-26 08:16 | 41.49929 | 45.16565 | 5135 ft | 202 kts | 313° |
| 2026-04-26 08:16 | 41.50856 | 45.15314 | 5385 ft | 180 kts | 315° |
| 2026-04-26 08:17 | 41.51704 | 45.14230 | 5553 ft | 156 kts | 316° |
| 2026-04-26 08:17 | 41.52470 | 45.13282 | 5487 ft | 146 kts | 317° |
| 2026-04-26 08:17 | 41.53208 | 45.12374 | 5267 ft | 142 kts | 317° |
| 2026-04-26 08:17 | 41.53932 | 45.11456 | 5031 ft | 143 kts | 316° |
| 2026-04-26 08:18 | 41.54648 | 45.10551 | 4808 ft | 144 kts | 316° |
| 2026-04-26 08:18 | 41.55394 | 45.09611 | 4593 ft | 148 kts | 316° |
| 2026-04-26 08:18 | 41.56152 | 45.08657 | 4375 ft | 153 kts | 317° |
| 2026-04-26 08:18 | 41.56940 | 45.07666 | 4148 ft | 157 kts | 317° |
| 2026-04-26 08:19 | 41.57731 | 45.06672 | 3911 ft | 156 kts | 317° |
| 2026-04-26 08:19 | 41.58508 | 45.05696 | 3657 ft | 148 kts | 317° |
| 2026-04-26 08:19 | 41.59233 | 45.04783 | 3418 ft | 138 kts | 317° |
| 2026-04-26 08:19 | 41.59905 | 45.03939 | 3192 ft | 130 kts | 317° |
| 2026-04-26 08:20 | 41.60584 | 45.03078 | 2979 ft | 140 kts | 316° |
| 2026-04-26 08:20 | 41.61281 | 45.02170 | 2818 ft | 141 kts | 315° |
| 2026-04-26 08:20 | 41.61985 | 45.01272 | 2623 ft | 136 kts | 317° |
| 2026-04-26 08:20 | 41.62696 | 45.00409 | 2529 ft | 145 kts | 318° |
| 2026-04-26 08:21 | 41.63446 | 44.99486 | 2366 ft | 144 kts | 316° |
| 2026-04-26 08:21 | 41.64151 | 44.98576 | 2143 ft | 138 kts | 316° |
| 2026-04-26 08:21 | 41.64835 | 44.97711 | 1887 ft | 135 kts | 317° |
| 2026-04-26 08:21 | 41.65529 | 44.96835 | 1744 ft | 143 kts | 317° |
| 2026-04-26 08:22 | 41.66256 | 44.95932 | 1645 ft | 136 kts | 317° |
| 2026-04-26 08:22 | 41.66805 | 44.95246 | 1641 ft | 65 kts | 316° |
| 2026-04-26 08:22 | 41.66994 | 44.95007 | 1641 ft | 28 kts | 316° |
| 2026-04-26 08:22 | 41.67146 | 44.94815 | 1641 ft | 32 kts | 316° |
| 2026-04-26 08:23 | 41.67325 | 44.94586 | 1641 ft | 38 kts | 316° |
| 2026-04-26 08:23 | 41.67500 | 44.94426 | 1641 ft | 22 kts | 12° |
| 2026-04-26 08:23 | 41.67606 | 44.94502 | 1641 ft | 15 kts | 326° |
| 2026-04-26 08:23 | 41.67655 | 44.94441 | 1641 ft | 0 kts | 311° |